Thibodaux, Louisiana
Current Conditions -  °F | °C
As of 11:47 AM on Friday 21 Nov 2014 (Local Time) from KHUM Reporting Station
Clear Clear  
Wind Chill: 72°   Ceiling: Unl
Heat Index: 72°   Visibility: 7mi
Dew Point: 46°   Wind: 14mph
Humidity: 41%   Direction: 90°E
Pressure: 30.26"   Gusts: NA
Location:  29.8°N, 90.82°W
Report Text: KHUM 211747Z 09012KT 7SM SKC 22/08 A3026 RMK RY12/30 CLOSED ATIS E VA/RY18 DV
Loading
Personal Weather Stations






























Interactive Weather Map New forecast layout! Learn more

10-Day Weather Forecast

Advertisements
Track Severe Weather on mobile